Time;durP1;ratioP1;P1;durP2;ratioP2;P2;SDS_P1;SDS_P2;PMS_P1;PMS_P2;Temp;Humidity;BMP_temperature;BMP_pressure;BME280_temperature;BME280_humidity;BME280_pressure;Samples;Min_cycle;Max_cycle;Signal;HPM_P1;HPM_P2
2023/02/24 00:01:07;;;;;;;;;35.00;30.75;;;;;10.89;66.01;101015.47;4920174;28;45376;-83
2023/02/24 00:03:36;;;;;;;;;36.25;30.25;;;;;10.90;66.07;101009.22;4920890;28;46860;-84
2023/02/24 00:06:08;;;;;;;;;36.25;31.50;;;;;11.03;66.43;101029.31;4910944;28;45339;-83
2023/02/24 00:08:34;;;;;;;;;41.25;34.75;;;;;11.10;66.38;101032.66;4908363;28;45316;-83
2023/02/24 00:10:59;;;;;;;;;43.75;36.75;;;;;10.94;66.35;101005.50;4919240;28;45251;-83
2023/02/24 00:13:24;;;;;;;;;41.75;34.00;;;;;10.99;65.68;101019.59;4919032;28;45939;-83
2023/02/24 00:16:01;;;;;;;;;40.75;33.50;;;;;10.97;65.84;101018.78;4902860;28;45361;-83
2023/02/24 00:18:27;;;;;;;;;38.25;34.25;;;;;10.98;65.96;101020.56;4894641;29;45332;-83
2023/02/24 00:20:55;;;;;;;;;37.75;35.00;;;;;10.97;66.03;101010.78;4908909;28;45406;-83
2023/02/24 00:23:22;;;;;;;;;36.50;32.00;;;;;10.90;66.25;101001.19;4899747;29;47249;-83
2023/02/24 00:25:48;;;;;;;;;41.00;36.50;;;;;10.86;66.14;100988.84;4886106;29;45782;-84
2023/02/24 00:28:13;;;;;;;;;38.50;33.00;;;;;10.92;66.15;101007.38;4902476;29;45399;-83
2023/02/24 00:30:39;;;;;;;;;38.00;33.75;;;;;11.01;66.38;101017.78;4902893;28;45666;-83
2023/02/24 00:33:05;;;;;;;;;32.25;26.75;;;;;10.87;66.06;100986.13;4894793;28;47032;-83
2023/02/24 00:35:31;;;;;;;;;37.25;33.00;;;;;10.90;66.65;100985.19;4903332;28;45562;-83
2023/02/24 00:37:56;;;;;;;;;50.00;37.25;;;;;10.99;66.42;100984.00;4899972;29;45424;-83
2023/02/24 00:40:22;;;;;;;;;41.25;30.00;;;;;11.08;66.23;101008.66;4886015;29;45625;-83
2023/02/24 00:42:49;;;;;;;;;38.50;31.50;;;;;11.08;66.21;100999.78;4915038;28;45411;-83
2023/02/24 00:45:15;;;;;;;;;46.00;34.50;;;;;10.83;66.64;100962.25;4885770;29;45194;-84
2023/02/24 00:47:41;;;;;;;;;46.50;34.25;;;;;11.07;66.02;101003.38;4906980;28;45560;-84
2023/02/24 00:50:08;;;;;;;;;37.75;33.00;;;;;10.94;66.44;100976.13;4910615;28;45522;-84
2023/02/24 00:52:35;;;;;;;;;43.50;32.00;;;;;10.85;66.16;100957.72;4913388;28;46471;-83
2023/02/24 00:55:12;;;;;;;;;47.50;38.25;;;;;10.99;66.19;100982.22;4885325;29;45735;-83
2023/02/24 00:57:38;;;;;;;;;44.50;36.50;;;;;11.00;66.35;100978.63;4888864;28;45453;-83
2023/02/24 01:00:09;;;;;;;;;42.75;36.50;;;;;11.02;66.40;100984.78;4904936;28;45422;-83
2023/02/24 01:02:37;;;;;;;;;44.00;37.00;;;;;11.02;66.39;100975.91;4904333;29;47515;-83
2023/02/24 01:05:02;;;;;;;;;38.50;34.25;;;;;11.06;66.53;100974.88;4903220;28;45387;-83
2023/02/24 01:07:28;;;;;;;;;44.00;38.00;;;;;11.16;66.18;100987.06;4905739;29;45314;-83
2023/02/24 01:09:53;;;;;;;;;47.50;37.75;;;;;11.22;66.21;100980.66;4902727;28;45474;-84
2023/02/24 01:12:37;;;;;;;;;41.50;37.00;;;;;11.15;66.10;100971.94;4917674;28;45317;-83
2023/02/24 01:15:04;;;;;;;;;47.50;36.50;;;;;11.25;65.95;100983.22;4897773;28;45596;-84
2023/02/24 01:17:30;;;;;;;;;47.00;39.75;;;;;11.06;66.35;100950.84;4913544;28;45592;-84
2023/02/24 01:19:59;;;;;;;;;54.00;40.00;;;;;11.11;65.87;100956.94;4907200;28;45521;-83
2023/02/24 01:22:25;;;;;;;;;42.00;36.00;;;;;11.16;66.20;100960.34;4901359;28;47245;-83
2023/02/24 01:24:50;;;;;;;;;45.00;36.25;;;;;11.19;66.12;100986.09;4890223;29;46157;-83
2023/02/24 01:27:18;;;;;;;;;55.75;41.50;;;;;11.00;66.01;100959.94;4905093;28;45365;-83
2023/02/24 01:29:44;;;;;;;;;51.75;40.75;;;;;11.04;66.62;100963.38;4905231;28;45308;-83
2023/02/24 01:32:15;;;;;;;;;50.00;40.50;;;;;10.98;66.42;100956.44;4916642;28;46360;-83
2023/02/24 01:34:41;;;;;;;;;51.75;39.50;;;;;10.92;66.62;100945.94;4923522;28;45379;-83
2023/02/24 01:37:06;;;;;;;;;46.25;36.75;;;;;11.07;66.07;100972.16;4906670;28;45357;-83
2023/02/24 01:39:32;;;;;;;;;46.25;40.25;;;;;11.08;66.37;100951.69;4922622;28;45392;-83
2023/02/24 01:42:00;;;;;;;;;45.50;33.50;;;;;11.07;66.40;100965.97;4922546;28;45380;-83
2023/02/24 01:44:31;;;;;;;;;46.75;39.25;;;;;11.06;66.21;100964.19;4906247;28;45672;-83
2023/02/24 01:46:57;;;;;;;;;47.00;39.75;;;;;10.98;66.69;100951.09;4888394;28;45352;-83
2023/02/24 01:49:36;;;;;;;;;47.75;39.00;;;;;10.84;66.98;100923.94;4919718;28;45319;-83
2023/02/24 01:52:07;;;;;;;;;60.50;42.50;;;;;11.07;66.58;100958.81;4920317;28;45207;-83
2023/02/24 01:54:41;;;;;;;;;48.50;37.00;;;;;11.03;66.40;100958.97;4915315;28;45329;-84
2023/02/24 01:57:08;;;;;;;;;51.75;40.50;;;;;10.75;66.66;100917.94;4915079;28;45334;-83
2023/02/24 01:59:35;;;;;;;;;51.50;39.00;;;;;10.89;66.59;100951.38;4923911;28;45274;-83
2023/02/24 02:02:06;;;;;;;;;46.75;35.00;;;;;10.97;66.39;100946.66;4910807;28;46188;-84
2023/02/24 02:04:46;;;;;;;;;49.75;38.25;;;;;10.89;66.48;100927.31;4922979;28;45592;-84
2023/02/24 02:07:16;;;;;;;;;40.75;34.75;;;;;11.01;66.47;100940.31;4902385;29;45330;-83
2023/02/24 02:09:42;;;;;;;;;46.75;36.00;;;;;11.02;66.15;100925.16;4915209;28;45402;-84
2023/02/24 02:12:09;;;;;;;;;43.00;36.25;;;;;10.89;66.30;100913.97;4902658;28;47399;-83
2023/02/24 02:14:42;;;;;;;;;45.50;37.75;;;;;10.79;66.47;100893.81;4894410;29;45785;-83
2023/02/24 02:17:28;;;;;;;;;45.25;39.75;;;;;11.00;66.59;100922.53;4906692;28;45302;-84
2023/02/24 02:20:26;;;;;;;;;58.00;44.00;;;;;10.95;66.04;100937.84;4903681;28;45648;-83
2023/02/24 02:23:26;;;;;;;;;44.75;36.75;;;;;10.92;66.44;100932.59;4921375;28;45613;-84
2023/02/24 02:25:54;;;;;;;;;45.75;36.50;;;;;10.89;66.19;100927.31;4904009;28;45732;-84
2023/02/24 02:28:35;;;;;;;;;51.75;39.00;;;;;10.88;66.31;100913.13;4922802;28;45370;-83
2023/02/24 02:31:15;;;;;;;;;47.00;38.00;;;;;10.70;66.11;100885.16;4916651;28;45538;-83
2023/02/24 02:34:06;;;;;;;;;49.25;37.25;;;;;10.72;67.01;100883.31;4917968;28;45437;-83
2023/02/24 02:36:44;;;;;;;;;39.75;32.25;;;;;10.97;66.73;100903.94;4917219;28;45267;-83
2023/02/24 02:39:30;;;;;;;;;38.50;34.25;;;;;11.01;66.61;100905.59;4889936;28;45486;-83
2023/02/24 02:42:25;;;;;;;;;53.25;41.00;;;;;10.90;66.34;100879.22;4905479;28;45370;-83
2023/02/24 02:45:16;;;;;;;;;46.75;36.75;;;;;10.90;66.62;100889.03;4915239;28;46394;-84
2023/02/24 02:47:53;;;;;;;;;50.75;41.00;;;;;10.90;66.74;100887.22;4890374;28;45743;-84
2023/02/24 02:50:25;;;;;;;;;47.00;40.00;;;;;10.92;67.22;100882.69;4919652;28;45422;-83
2023/02/24 02:53:05;;;;;;;;;51.25;40.75;;;;;10.95;67.01;100887.09;4898624;29;45716;-83
2023/02/24 02:55:39;;;;;;;;;49.50;39.75;;;;;10.86;67.34;100872.22;4903940;28;45333;-84
2023/02/24 02:58:13;;;;;;;;;54.50;42.75;;;;;10.98;67.35;100889.66;4909791;28;45659;-84
2023/02/24 03:00:48;;;;;;;;;56.50;43.00;;;;;10.86;67.22;100866.00;4904217;28;45228;-83
2023/02/24 03:03:17;;;;;;;;;40.25;36.00;;;;;10.90;67.44;100873.88;4909677;28;45375;-83
2023/02/24 03:05:50;;;;;;;;;57.75;44.25;;;;;11.00;67.08;100894.97;4921863;28;45311;-83
2023/02/24 03:08:22;;;;;;;;;44.00;38.75;;;;;10.90;67.58;100862.31;4892819;28;45396;-83
2023/02/24 03:10:52;;;;;;;;;56.00;43.75;;;;;10.84;67.54;100859.84;4905245;28;45364;-84
2023/02/24 03:13:24;;;;;;;;;47.00;39.50;;;;;10.89;67.56;100872.13;4907990;28;46193;-83
2023/02/24 03:15:52;;;;;;;;;54.25;44.00;;;;;10.90;67.20;100870.34;4887832;29;47214;-84
2023/02/24 03:18:27;;;;;;;;;55.00;41.00;;;;;10.91;67.34;100874.75;4892122;28;45273;-84
2023/02/24 03:21:06;;;;;;;;;55.75;44.25;;;;;10.82;67.17;100864.38;4917749;28;45563;-84
2023/02/24 03:23:36;;;;;;;;;37.50;33.75;;;;;10.82;67.84;100864.38;4918861;28;45457;-83
2023/02/24 03:26:15;;;;;;;;;50.00;42.00;;;;;10.94;67.48;100886.22;4886830;29;48482;-84
2023/02/24 03:28:52;;;;;;;;;49.25;36.75;;;;;10.83;67.64;100866.13;4902289;29;45958;-83
2023/02/24 03:31:42;;;;;;;;;55.00;44.00;;;;;10.90;67.32;100876.53;4900545;28;45462;-83
2023/02/24 03:34:27;;;;;;;;;41.75;38.25;;;;;10.97;67.60;100882.56;4919906;28;45309;-83
2023/02/24 03:36:53;;;;;;;;;51.50;41.50;;;;;10.98;67.48;100889.66;4886684;29;47678;-83
2023/02/24 03:39:19;;;;;;;;;46.75;38.00;;;;;10.83;67.21;100874.13;4902901;28;45795;-83
2023/02/24 03:41:59;;;;;;;;;52.50;41.25;;;;;10.67;67.79;100850.56;4896371;28;45390;-83
2023/02/24 03:44:25;;;;;;;;;46.50;39.00;;;;;10.69;68.19;100856.75;4908796;28;45305;-84
2023/02/24 03:46:51;;;;;;;;;52.50;40.50;;;;;10.72;68.14;100847.75;4910986;28;45329;-83
2023/02/24 03:49:17;;;;;;;;;40.25;34.75;;;;;10.96;67.97;100883.50;4903842;28;45462;-84
2023/02/24 03:51:55;;;;;;;;;51.25;39.25;;;;;10.86;67.45;100855.31;4918026;28;45281;-84
2023/02/24 03:54:45;;;;;;;;;52.00;38.50;;;;;10.96;67.55;100871.94;4910592;28;45300;-84
2023/02/24 03:57:36;;;;;;;;;56.50;43.25;;;;;10.96;67.94;100866.59;4917619;28;45939;-83
2023/02/24 04:00:25;;;;;;;;;46.25;37.50;;;;;10.93;68.01;100860.44;4902214;28;45309;-83
2023/02/24 04:03:29;;;;;;;;;57.75;44.00;;;;;10.96;67.89;100858.56;4894697;29;45724;-84
2023/02/24 04:06:05;;;;;;;;;47.75;40.75;;;;;10.91;68.17;100854.25;4837275;28;45687;-83
2023/02/24 04:08:44;;;;;;;;;50.25;37.00;;;;;10.89;67.71;100841.88;4908741;28;46218;-84
2023/02/24 04:11:25;;;;;;;;;53.50;39.50;;;;;10.88;67.87;100840.16;4894119;29;45704;-83
2023/02/24 04:14:01;;;;;;;;;41.75;37.00;;;;;10.96;67.88;100845.22;4916296;28;45347;-84
2023/02/24 04:16:48;;;;;;;;;45.75;38.00;;;;;10.89;67.55;100840.09;4891816;28;45949;-84
2023/02/24 04:19:18;;;;;;;;;51.00;41.50;;;;;10.86;67.74;100812.59;4905553;28;47492;-84
2023/02/24 04:21:49;;;;;;;;;48.50;41.00;;;;;10.99;67.68;100823.75;4914782;28;45609;-84
2023/02/24 04:24:18;;;;;;;;;50.50;42.00;;;;;10.92;67.48;100815.94;4918715;28;45322;-84
2023/02/24 04:26:46;;;;;;;;;49.25;37.00;;;;;11.03;67.42;100825.41;4912860;28;45343;-83
2023/02/24 04:29:19;;;;;;;;;41.50;34.25;;;;;10.97;67.00;100809.59;4908069;28;46446;-83
2023/02/24 04:31:53;;;;;;;;;43.75;37.00;;;;;10.94;66.75;100815.88;4898378;28;45322;-83
2023/02/24 04:34:18;;;;;;;;;50.50;38.00;;;;;10.82;67.17;100792.25;4898531;28;45353;-83
2023/02/24 04:36:48;;;;;;;;;52.50;41.50;;;;;10.90;66.97;100812.44;4921007;28;45421;-84
2023/02/24 04:39:19;;;;;;;;;49.00;37.00;;;;;10.81;67.37;100803.84;4904467;28;46209;-83
2023/02/24 04:41:48;;;;;;;;;50.75;38.75;;;;;10.81;67.38;100809.19;4909340;28;45513;-83
2023/02/24 04:44:16;;;;;;;;;49.00;38.50;;;;;10.74;67.83;100798.72;4885814;28;45408;-84
2023/02/24 04:46:42;;;;;;;;;38.00;33.50;;;;;10.78;67.48;100787.97;4901792;29;45604;-84
2023/02/24 04:49:08;;;;;;;;;49.75;37.50;;;;;10.77;67.42;100787.06;4913048;28;46010;-83
2023/02/24 04:51:35;;;;;;;;;45.00;36.50;;;;;10.93;67.52;100809.69;4917168;28;45165;-84
2023/02/24 04:54:00;;;;;;;;;43.50;36.50;;;;;10.81;67.22;100787.84;4899883;29;45257;-83
2023/02/24 04:56:28;;;;;;;;;49.25;38.50;;;;;10.83;67.61;100796.69;4885616;29;45451;-83
2023/02/24 04:58:53;;;;;;;;;49.25;41.00;;;;;10.90;67.11;100808.91;4914329;28;45398;-83
2023/02/24 05:01:18;;;;;;;;;42.50;37.25;;;;;10.84;67.26;100798.41;4907976;28;45492;-83
2023/02/24 05:03:44;;;;;;;;;49.75;37.00;;;;;10.66;66.81;100765.16;4914807;28;45329;-83
2023/02/24 05:06:14;;;;;;;;;48.25;40.50;;;;;10.81;67.30;100803.84;4903617;28;45251;-83
2023/02/24 05:08:40;;;;;;;;;50.75;40.00;;;;;10.74;67.57;100806.75;4916350;28;45489;-83
2023/02/24 05:11:06;;;;;;;;;49.75;40.50;;;;;10.72;67.03;100803.22;4915591;28;46193;-83
2023/02/24 05:13:32;;;;;;;;;55.50;43.75;;;;;10.66;67.11;100806.13;4902010;29;45771;-83
2023/02/24 05:16:06;;;;;;;;;38.75;36.25;;;;;10.60;67.49;100806.28;4892881;29;45837;-83
2023/02/24 05:18:38;;;;;;;;;54.75;41.00;;;;;10.43;67.56;100774.81;4901939;28;45747;-83
2023/02/24 05:23:53;;;;;;;;;54.00;42.75;;;;;10.46;67.30;100792.53;4910300;28;45349;-83
2023/02/24 05:26:22;;;;;;;;;54.00;41.50;;;;;10.48;67.88;100786.22;4899869;28;45466;-83
2023/02/24 05:28:51;;;;;;;;;45.25;36.00;;;;;10.45;68.23;100783.63;4884684;29;47572;-83
2023/02/24 05:31:20;;;;;;;;;43.50;39.00;;;;;10.36;68.64;100768.78;4913845;28;45795;-83
2023/02/24 05:33:48;;;;;;;;;48.75;40.50;;;;;10.50;68.14;100778.16;4921177;28;45410;-83
2023/02/24 05:36:16;;;;;;;;;44.50;34.75;;;;;10.32;68.61;100748.47;4903776;28;45224;-83
2023/02/24 05:38:56;;;;;;;;;41.75;37.00;;;;;10.57;67.86;100787.69;4884114;29;47684;-83
2023/02/24 05:41:24;;;;;;;;;50.00;40.50;;;;;10.62;68.23;100790.22;4907232;28;45778;-83
2023/02/24 05:43:53;;;;;;;;;54.00;40.75;;;;;10.51;68.48;100761.22;4919388;28;45486;-83
2023/02/24 05:46:27;;;;;;;;;48.00;38.00;;;;;10.65;68.38;100776.78;4921088;28;45343;-83
2023/02/24 05:48:55;;;;;;;;;48.50;38.50;;;;;10.65;68.32;100777.66;4882306;28;47269;-83
2023/02/24 05:51:23;;;;;;;;;44.50;39.50;;;;;10.50;68.42;100747.00;4915064;28;45624;-83
2023/02/24 05:53:50;;;;;;;;;50.25;39.00;;;;;10.70;68.17;100770.38;4908620;28;45410;-83
2023/02/24 05:56:20;;;;;;;;;44.25;36.25;;;;;10.55;68.08;100733.50;4905107;28;45254;-83
2023/02/24 05:58:46;;;;;;;;;50.00;38.50;;;;;10.75;68.42;100767.56;4914571;28;45398;-83
2023/02/24 06:01:15;;;;;;;;;53.50;42.25;;;;;10.63;68.31;100746.63;4897248;29;45379;-83
2023/02/24 06:03:45;;;;;;;;;48.00;38.25;;;;;10.54;68.01;100731.75;4907094;28;45478;-83
2023/02/24 06:06:11;;;;;;;;;49.00;42.25;;;;;10.78;68.08;100762.13;4903770;29;45403;-83
2023/02/24 06:08:48;;;;;;;;;47.75;39.75;;;;;10.69;68.25;100739.28;4895300;28;48519;-83
2023/02/24 06:11:16;;;;;;;;;54.50;43.75;;;;;10.84;68.01;100759.25;4911604;28;45690;-83
2023/02/24 06:13:47;;;;;;;;;57.25;44.25;;;;;10.87;67.88;100767.13;4902456;29;45281;-83
2023/02/24 06:16:15;;;;;;;;;51.50;43.50;;;;;10.82;67.89;100762.88;4888078;29;45506;-83
2023/02/24 06:18:41;;;;;;;;;50.25;40.00;;;;;10.69;67.77;100751.72;4906117;28;46476;-83
2023/02/24 06:21:07;;;;;;;;;56.50;43.50;;;;;10.75;67.84;100763.09;4913515;28;45356;-83
2023/02/24 06:23:33;;;;;;;;;47.75;38.50;;;;;10.74;67.90;100756.00;4917101;28;45272;-83
2023/02/24 06:26:03;;;;;;;;;55.50;41.25;;;;;10.75;68.14;100746.19;4904782;28;45488;-83
2023/02/24 06:28:29;;;;;;;;;55.50;42.00;;;;;10.71;68.07;100731.22;4909169;28;45976;-83
2023/02/24 06:30:55;;;;;;;;;48.75;41.00;;;;;10.70;67.53;100727.66;4922448;28;45596;-83
2023/02/24 06:33:21;;;;;;;;;45.25;37.25;;;;;10.70;67.72;100732.13;4923499;28;45660;-83
2023/02/24 06:35:47;;;;;;;;;38.50;34.25;;;;;10.75;67.73;100747.06;4922188;28;45273;-83
2023/02/24 06:38:13;;;;;;;;;46.75;38.75;;;;;10.69;67.42;100747.28;4912861;28;45493;-83
2023/02/24 06:40:41;;;;;;;;;53.00;41.00;;;;;10.75;67.39;100763.09;4905418;28;45841;-83
2023/02/24 06:43:08;;;;;;;;;39.50;34.00;;;;;10.61;66.98;100741.31;4905711;28;45365;-83
2023/02/24 06:45:34;;;;;;;;;46.00;38.75;;;;;10.75;67.43;100767.56;4907683;28;45282;-83
2023/02/24 06:47:59;;;;;;;;;47.50;40.00;;;;;10.47;67.21;100717.72;4909269;28;45220;-83
2023/02/24 06:50:25;;;;;;;;;38.00;32.00;;;;;10.68;66.79;100764.22;4890880;28;46058;-83
2023/02/24 06:52:57;;;;;;;;;42.25;37.00;;;;;10.70;67.20;100764.16;4913287;28;45291;-83
2023/02/24 06:55:25;;;;;;;;;43.50;37.50;;;;;10.44;66.58;100736.53;4887274;29;45750;-83
2023/02/24 06:57:56;;;;;;;;;43.00;35.25;;;;;10.50;66.31;100771.00;4906943;28;45285;-83
2023/02/24 07:00:35;;;;;;;;;48.00;38.75;;;;;10.43;66.75;100777.47;4909168;28;45370;-83
2023/02/24 07:03:13;;;;;;;;;51.50;40.25;;;;;10.33;67.07;100763.53;4917965;28;45395;-83
2023/02/24 07:05:41;;;;;;;;;39.00;35.25;;;;;10.32;66.86;100771.59;4911057;28;45583;-83
2023/02/24 07:08:07;;;;;;;;;42.75;36.50;;;;;10.26;66.94;100756.63;4897279;28;48036;-83
2023/02/24 07:10:33;;;;;;;;;51.50;41.00;;;;;10.24;66.91;100754.91;4920831;28;45374;-83
2023/02/24 07:12:59;;;;;;;;;47.75;38.00;;;;;10.28;66.50;100770.78;4913778;28;45333;-83
2023/02/24 07:15:24;;;;;;;;;47.50;39.25;;;;;10.32;67.15;100774.25;4893752;28;45635;-82
2023/02/24 07:17:53;;;;;;;;;38.50;36.25;;;;;10.20;67.32;100772.81;4910674;28;45627;-82
2023/02/24 07:20:24;;;;;;;;;41.50;32.00;;;;;10.06;67.12;100759.03;4902419;28;45406;-83
2023/02/24 07:22:50;;;;;;;;;39.50;31.75;;;;;10.13;66.82;100763.25;4919003;28;45436;-83
2023/02/24 07:25:31;;;;;;;;;48.25;36.50;;;;;10.22;67.02;100778.97;4907655;28;45280;-82
2023/02/24 07:27:58;;;;;;;;;38.75;32.00;;;;;9.91;66.66;100749.69;4895741;28;48246;-82
2023/02/24 07:30:24;;;;;;;;;49.75;39.25;;;;;10.08;67.01;100775.84;4918235;28;45736;-82
2023/02/24 07:32:54;;;;;;;;;47.50;38.00;;;;;10.02;66.65;100771.56;4915595;28;45379;-82
2023/02/24 07:35:22;;;;;;;;;44.50;36.25;;;;;9.95;66.56;100770.88;4912166;28;45299;-82
2023/02/24 07:37:48;;;;;;;;;39.50;35.75;;;;;9.96;66.71;100769.97;4895795;28;47509;-81
2023/02/24 07:40:16;;;;;;;;;37.75;34.25;;;;;10.01;66.79;100780.50;4919271;28;45377;-82
2023/02/24 07:42:46;;;;;;;;;48.00;39.50;;;;;10.09;66.48;100785.59;4920445;28;45261;-82
2023/02/24 07:45:12;;;;;;;;;47.00;38.75;;;;;9.88;66.62;100755.09;4905406;28;45364;-82
2023/02/24 07:47:39;;;;;;;;;39.50;33.00;;;;;9.89;66.50;100767.50;4914868;28;45303;-82
2023/02/24 07:50:12;;;;;;;;;40.75;35.50;;;;;9.95;66.77;100786.00;4906712;28;45267;-82
2023/02/24 07:52:37;;;;;;;;;37.00;34.50;;;;;9.85;66.54;100768.53;4909134;28;45469;-82
2023/02/24 07:55:05;;;;;;;;;47.25;37.50;;;;;9.85;66.56;100785.38;4920563;28;45243;-82
2023/02/24 07:57:32;;;;;;;;;42.50;34.25;;;;;9.80;66.66;100768.66;4906136;28;45317;-82
2023/02/24 07:59:58;;;;;;;;;38.25;34.75;;;;;9.59;67.32;100746.16;4908065;28;45889;-82
2023/02/24 08:02:24;;;;;;;;;49.25;38.75;;;;;9.78;67.03;100774.03;4913190;28;45548;-82
2023/02/24 08:04:50;;;;;;;;;40.50;34.75;;;;;9.75;67.12;100762.56;4896387;28;45593;-82
2023/02/24 08:07:22;;;;;;;;;46.25;37.00;;;;;9.75;67.23;100754.56;4906891;28;46097;-82
2023/02/24 08:12:33;;;;;;;;;43.50;37.25;;;;;9.91;67.12;100769.22;4915733;28;45335;-82
2023/02/24 08:15:07;;;;;;;;;50.00;37.50;;;;;9.87;67.13;100764.88;4905208;28;45823;-82
2023/02/24 08:17:33;;;;;;;;;47.00;38.00;;;;;9.71;67.32;100747.59;4908700;28;46067;-82
2023/02/24 08:20:51;;;;;;;;;44.25;34.25;;;;;9.82;66.71;100758.81;4897703;28;45364;-82
2023/02/24 08:22:52;;;;;;;;;46.00;37.75;;;;;9.91;66.98;100769.22;4892939;28;45522;-81
2023/02/24 08:25:24;;;;;;;;;45.25;36.50;;;;;9.89;66.33;100772.84;4905561;28;45449;-82
2023/02/24 08:27:54;;;;;;;;;43.25;35.75;;;;;9.82;66.34;100756.13;4914880;28;45923;-80
2023/02/24 08:30:28;;;;;;;;;39.25;34.50;;;;;9.91;66.38;100777.22;4918106;28;45563;-81
2023/02/24 08:32:58;;;;;;;;;42.00;35.50;;;;;9.87;66.35;100774.69;4892850;28;45480;-81
2023/02/24 08:35:35;;;;;;;;;42.00;37.25;;;;;9.86;66.60;100779.16;4907570;28;45563;-81
2023/02/24 08:38:08;;;;;;;;;49.25;38.00;;;;;9.91;66.61;100776.34;4910962;28;46030;-81
2023/02/24 08:40:38;;;;;;;;;40.25;35.25;;;;;9.79;67.01;100750.94;4909735;28;45407;-81
2023/02/24 08:43:14;;;;;;;;;49.00;38.00;;;;;9.91;66.67;100765.69;4915609;28;45500;-81
2023/02/24 08:45:43;;;;;;;;;45.50;39.00;;;;;9.74;66.54;100736.81;4906623;28;45311;-81
2023/02/24 08:48:17;;;;;;;;;43.00;35.25;;;;;9.90;66.28;100756.78;4916879;28;45588;-81
2023/02/24 08:50:44;;;;;;;;;45.25;36.50;;;;;9.74;66.74;100723.50;4917118;28;45763;-78
2023/02/24 08:53:14;;;;;;;;;50.25;38.00;;;;;9.90;66.50;100742.59;4913988;28;45687;-81
2023/02/24 08:55:39;;;;;;;;;43.25;37.00;;;;;9.80;66.02;100718.84;4906581;28;45422;-81
2023/02/24 08:58:09;;;;;;;;;29.25;28.00;;;;;9.94;66.59;100742.47;4905482;28;47544;-80
2023/02/24 09:00:52;;;;;;;;;39.50;30.00;;;;;9.96;66.68;100742.44;4916555;28;45260;-80
2023/02/24 09:03:26;;;;;;;;;40.50;36.00;;;;;9.93;66.64;100735.38;4908527;28;45621;-80
2023/02/24 09:05:58;;;;;;;;;45.50;39.75;;;;;10.02;66.45;100740.44;4913546;28;45398;-80
2023/02/24 09:08:31;;;;;;;;;50.50;40.00;;;;;9.92;66.31;100714.09;4888141;28;47457;-80
2023/02/24 09:10:58;;;;;;;;;47.25;39.00;;;;;10.02;65.89;100729.78;4904030;28;45768;-81
2023/02/24 09:13:31;;;;;;;;;38.75;33.75;;;;;9.85;65.80;100701.88;4908902;28;45314;-80
2023/02/24 09:16:01;;;;;;;;;36.25;33.25;;;;;10.04;66.19;100731.50;4916492;28;45323;-80
2023/02/24 09:18:29;;;;;;;;;44.50;34.75;;;;;10.06;65.29;100743.03;4913317;28;45602;-80
2023/02/24 09:20:56;;;;;;;;;42.25;37.00;;;;;10.05;65.54;100741.25;4918674;28;45541;-81
2023/02/24 09:23:28;;;;;;;;;38.00;31.50;;;;;10.01;65.67;100737.81;4908152;28;45410;-81
2023/02/24 09:25:54;;;;;;;;;43.25;32.75;;;;;10.06;65.72;100751.91;4918302;28;45449;-80
2023/02/24 09:28:25;;;;;;;;;36.25;34.75;;;;;9.87;65.40;100721.34;4919179;28;45959;-80
2023/02/24 09:31:03;;;;;;;;;44.50;34.75;;;;;10.04;65.82;100748.41;4904057;28;46197;-79
2023/02/24 09:33:37;;;;;;;;;42.50;35.00;;;;;10.01;65.73;100757.34;4917643;28;45638;-80
2023/02/24 09:36:26;;;;;;;;;41.75;32.25;;;;;9.96;65.94;100745.97;4907623;28;45418;-78
2023/02/24 09:44:43;;;;;;;;;42.75;35.25;;;;;10.16;65.40;100753.34;4916595;28;45577;-80
2023/02/24 09:47:14;;;;;;;;;44.25;35.50;;;;;10.16;65.08;100756.03;4914883;28;45405;-80
2023/02/24 09:49:54;;;;;;;;;38.00;32.25;;;;;10.13;64.96;100758.78;4907391;28;45534;-87
2023/02/24 09:52:38;;;;;;;;;40.75;32.00;;;;;9.93;65.16;100727.38;4917602;28;45712;-87
2023/02/24 09:55:26;;;;;;;;;43.25;35.75;;;;;10.07;64.79;100752.75;4908019;28;45642;-80
2023/02/24 09:58:27;;;;;;;;;39.00;35.00;;;;;10.09;65.13;100750.91;4902665;28;45848;-78
2023/02/24 10:01:21;;;;;;;;;39.50;32.25;;;;;10.11;64.61;100738.44;4909541;28;45458;-78
2023/02/24 10:04:04;;;;;;;;;34.00;30.25;;;;;10.13;65.21;100741.91;4916922;28;45446;-79
2023/02/24 10:06:41;;;;;;;;;35.50;32.25;;;;;10.16;64.77;100742.69;4912114;28;45465;-78
2023/02/24 10:09:32;;;;;;;;;34.75;29.50;;;;;10.19;65.24;100744.41;4893653;28;45482;-78
2023/02/24 10:12:10;;;;;;;;;38.50;30.25;;;;;10.27;65.50;100742.34;4914476;28;45487;-78
2023/02/24 10:14:44;;;;;;;;;35.75;29.75;;;;;10.15;64.64;100708.91;4901828;28;45442;-78
2023/02/24 10:17:22;;;;;;;;;34.50;31.00;;;;;10.26;64.27;100724.59;4898888;28;45491;-79
2023/02/24 10:19:55;;;;;;;;;45.25;35.00;;;;;10.12;63.82;100702.81;4908570;28;45292;-82
2023/02/24 10:22:29;;;;;;;;;36.00;28.50;;;;;10.20;64.50;100719.44;4910756;28;45300;-80
2023/02/24 10:25:17;;;;;;;;;38.75;28.00;;;;;10.14;64.14;100708.97;4909743;28;45753;-81
2023/02/24 10:27:58;;;;;;;;;33.75;30.25;;;;;10.06;64.26;100695.88;4916936;28;45485;-79
2023/02/24 10:30:39;;;;;;;;;35.50;31.75;;;;;10.17;64.39;100714.22;4896161;28;45890;-80
2023/02/24 10:33:16;;;;;;;;;31.50;30.25;;;;;10.19;64.50;100693.72;4911971;28;47838;-81
2023/02/24 10:35:42;;;;;;;;;32.25;29.00;;;;;10.10;64.12;100688.66;4900480;28;45342;-80
2023/02/24 10:38:08;;;;;;;;;31.25;28.00;;;;;10.02;63.90;100694.22;4910417;28;46488;-80
2023/02/24 10:40:45;;;;;;;;;37.75;30.50;;;;;10.01;64.39;100685.34;4910507;28;45320;-80
2023/02/24 10:43:28;;;;;;;;;36.75;33.75;;;;;10.10;64.16;100705.53;4905174;28;45348;-80
2023/02/24 10:46:04;;;;;;;;;27.75;26.75;;;;;10.13;64.04;100688.56;4906375;28;45390;-80
2023/02/24 10:48:37;;;;;;;;;35.25;32.00;;;;;10.14;64.44;100675.19;4906287;28;45309;-82
2023/02/24 10:51:18;;;;;;;;;26.25;24.75;;;;;10.27;64.64;100683.66;4919721;28;45319;-82
2023/02/24 10:53:52;;;;;;;;;27.75;23.75;;;;;10.33;64.06;100680.81;4919587;28;45250;-83
2023/02/24 11:01:57;;;;;;;;;31.25;28.25;;;;;10.45;63.98;100668.88;4915558;28;45422;-82
2023/02/24 11:04:32;;;;;;;;;31.75;27.50;;;;;10.42;63.48;100658.28;4897709;28;46431;-81
2023/02/24 11:07:09;;;;;;;;;34.75;30.75;;;;;10.47;63.51;100671.50;4895625;28;45333;-81
2023/02/24 11:09:42;;;;;;;;;29.50;26.75;;;;;10.23;62.66;100639.31;4921876;28;45278;-83
2023/02/24 11:18:07;;;;;;;;;32.25;28.25;;;;;10.47;63.06;100656.34;4913307;28;46033;-83
2023/02/24 11:20:39;;;;;;;;;25.75;23.00;;;;;10.51;62.49;100663.34;4899279;28;46535;-83
2023/02/24 11:23:08;;;;;;;;;29.50;25.25;;;;;10.36;62.09;100629.16;4909631;28;45411;-83
2023/02/24 11:25:39;;;;;;;;;23.75;22.50;;;;;10.44;62.40;100650.25;4908834;28;46390;-83
2023/02/24 11:28:34;;;;;;;;;30.50;22.50;;;;;10.37;62.53;100633.56;4888092;28;46103;-83
2023/02/24 11:31:09;;;;;;;;;24.00;22.00;;;;;10.43;62.46;100637.84;4915408;28;45458;-83
2023/02/24 11:33:46;;;;;;;;;26.75;25.00;;;;;10.50;62.90;100626.03;4912885;28;45367;-83
2023/02/24 11:36:32;;;;;;;;;28.50;24.25;;;;;10.47;63.21;100600.31;4887190;29;47385;-83
2023/02/24 11:39:35;;;;;;;;;24.50;20.25;;;;;10.67;62.64;100614.75;4892418;29;45428;-83
2023/02/24 11:42:08;;;;;;;;;25.25;23.75;;;;;10.75;62.02;100618.91;4918693;28;45269;-83
2023/02/24 11:44:50;;;;;;;;;27.50;25.75;;;;;10.66;61.28;100586.31;4913647;28;45746;-82
2023/02/24 11:47:22;;;;;;;;;28.50;22.25;;;;;10.81;61.92;100600.91;4915041;28;47086;-78
2023/02/24 11:49:52;;;;;;;;;28.25;24.00;;;;;10.79;61.47;100578.75;4901780;28;45981;-78
2023/02/24 11:52:28;;;;;;;;;25.50;23.75;;;;;10.90;61.31;100589.94;4905776;28;45319;-78
2023/02/24 11:54:56;;;;;;;;;17.75;16.50;;;;;10.95;61.67;100577.28;4910803;28;45326;-78